Time;durP1;ratioP1;P1;durP2;ratioP2;P2;SDS_P1;SDS_P2;PMS_P1;PMS_P2;Temp;Humidity;BMP_temperature;BMP_pressure;BME280_temperature;BME280_humidity;BME280_pressure;Samples;Min_cycle;Max_cycle;Signal;HPM_P1;HPM_P2
2022/11/04 00:01:10;;;;;;;1.45;0.93;;;;;;;-146.48;100.00;60459.00;5309483;28;20028;-78
2022/11/04 00:03:42;;;;;;;2.55;1.20;;;;;;;-146.48;100.00;60459.00;5308302;28;20032;-80
2022/11/04 00:06:13;;;;;;;2.83;2.63;;;;;;;-146.48;100.00;60459.00;5308348;28;20028;-79
2022/11/04 00:08:52;;;;;;;4.18;3.78;;;;;;;-146.48;100.00;60459.00;5305574;28;20516;-79
2022/11/04 00:14:14;;;;;;;5.10;4.60;;;;;;;-146.48;100.00;60459.00;5304971;28;19916;-79
2022/11/04 00:33:58;;;;;;;3.80;3.25;;;;;;;-146.48;100.00;60459.00;5304118;28;20464;-78
2022/11/04 00:36:30;;;;;;;5.75;3.67;;;;;;;-146.48;100.00;60459.00;5302504;28;20016;-78
2022/11/04 00:39:01;;;;;;;5.65;3.47;;;;;;;-146.48;100.00;60459.00;5303936;28;20023;-78
2022/11/04 00:41:32;;;;;;;4.68;3.80;;;;;;;-146.48;100.00;60459.00;5303312;28;20032;-77
2022/11/04 00:44:04;;;;;;;4.25;3.58;;;;;;;-146.48;100.00;60459.00;5302885;28;20040;-77
2022/11/04 00:46:35;;;;;;;5.25;3.75;;;;;;;-146.48;100.00;60459.00;5303165;28;20062;-77
2022/11/04 00:49:06;;;;;;;3.78;3.40;;;;;;;-146.48;100.00;60459.00;5303599;28;20032;-78
2022/11/04 00:51:38;;;;;;;3.80;3.50;;;;;;;-146.48;100.00;60459.00;5302705;28;20050;-78
2022/11/04 00:54:09;;;;;;;3.75;3.42;;;;;;;-146.48;100.00;60459.00;5303953;28;20020;-78
2022/11/04 00:56:41;;;;;;;4.45;3.33;;;;;;;-146.48;100.00;60459.00;5302263;28;20039;-78
2022/11/04 00:59:12;;;;;;;4.70;3.45;;;;;;;-146.48;100.00;60459.00;5302010;28;20027;-78
2022/11/04 01:01:44;;;;;;;4.38;3.83;;;;;;;-146.48;100.00;60459.00;5303743;28;20028;-77
2022/11/04 01:04:15;;;;;;;4.88;3.13;;;;;;;-146.48;100.00;60459.00;5302078;28;20035;-77
2022/11/04 01:06:46;;;;;;;3.90;3.25;;;;;;;-146.48;100.00;60459.00;5303557;28;20413;-77
2022/11/04 01:09:18;;;;;;;5.50;3.78;;;;;;;-146.48;100.00;60459.00;5302743;28;20032;-78
2022/11/04 01:11:49;;;;;;;4.57;4.05;;;;;;;-146.48;100.00;60459.00;5302567;28;20027;-78
2022/11/04 01:14:21;;;;;;;4.18;3.25;;;;;;;-146.48;100.00;60459.00;5302825;28;20068;-78
2022/11/04 01:16:52;;;;;;;5.28;4.10;;;;;;;-146.48;100.00;60459.00;5303479;28;20024;-78
2022/11/04 01:19:24;;;;;;;5.07;4.47;;;;;;;-146.48;100.00;60459.00;5301973;28;20024;-78
2022/11/04 01:21:55;;;;;;;5.93;5.07;;;;;;;-146.48;100.00;60459.00;5303159;28;20031;-77
2022/11/04 01:24:26;;;;;;;8.35;5.20;;;;;;;-146.48;100.00;60459.00;5302484;28;20032;-78
2022/11/04 01:26:58;;;;;;;6.85;4.60;;;;;;;-146.48;100.00;60459.00;5302416;28;20016;-78
2022/11/04 01:29:29;;;;;;;5.72;5.03;;;;;;;-146.48;100.00;60459.00;5302294;28;20035;-78
2022/11/04 01:32:00;;;;;;;6.47;4.85;;;;;;;-146.48;100.00;60459.00;5302100;28;20029;-78
2022/11/04 01:34:32;;;;;;;5.70;4.20;;;;;;;-146.48;100.00;60459.00;5302201;28;20483;-78
2022/11/04 01:37:03;;;;;;;6.22;4.75;;;;;;;-146.48;100.00;60459.00;5302696;28;20057;-78
2022/11/04 01:39:34;;;;;;;8.23;4.47;;;;;;;-146.48;100.00;60459.00;5301349;28;20442;-77
2022/11/04 01:42:06;;;;;;;6.93;4.55;;;;;;;-146.48;100.00;60459.00;5302964;28;20483;-78
2022/11/04 01:44:39;;;;;;;5.32;4.05;;;;;;;-146.48;100.00;60459.00;5302225;28;20074;-78
2022/11/04 01:47:53;;;;;;;6.75;3.60;;;;;;;-146.48;100.00;60459.00;5301904;28;20043;-77
2022/11/04 01:50:27;;;;;;;5.95;3.85;;;;;;;-146.48;100.00;60459.00;5280264;28;20050;-78
2022/11/04 01:53:17;;;;;;;7.45;3.90;;;;;;;-146.48;100.00;60459.00;5301926;28;20020;-78
2022/11/04 01:55:54;;;;;;;7.13;3.60;;;;;;;-146.48;100.00;60459.00;5303144;28;20111;-78
2022/11/04 01:58:29;;;;;;;4.68;2.88;;;;;;;-146.48;100.00;60459.00;5302088;28;20020;-78
2022/11/04 02:01:01;;;;;;;3.75;2.17;;;;;;;-146.48;100.00;60459.00;5302407;28;20030;-77
2022/11/04 02:03:39;;;;;;;5.85;2.28;;;;;;;-146.48;100.00;60459.00;5302138;28;20107;-78
2022/11/04 02:06:11;;;;;;;6.47;2.30;;;;;;;-146.48;100.00;60459.00;5302898;28;20036;-78
2022/11/04 02:08:42;;;;;;;4.07;2.53;;;;;;;-146.48;100.00;60459.00;5301274;28;20039;-78
2022/11/04 02:12:48;;;;;;;3.45;2.13;;;;;;;-146.48;100.00;60459.00;5304339;28;20463;-78
2022/11/04 02:14:05;;;;;;;4.32;2.13;;;;;;;-146.48;100.00;60459.00;5305951;28;20039;-78
2022/11/04 02:16:43;;;;;;;3.75;1.70;;;;;;;-146.48;100.00;60459.00;5306383;28;20020;-78
2022/11/04 02:19:42;;;;;;;3.78;1.48;;;;;;;-146.48;100.00;60459.00;5306000;28;20039;-77
2022/11/04 02:22:29;;;;;;;7.93;1.90;;;;;;;-146.48;100.00;60459.00;5305249;28;20407;-77
2022/11/04 02:25:16;;;;;;;2.85;1.80;;;;;;;-146.48;100.00;60459.00;5306820;28;20157;-77
2022/11/04 02:28:05;;;;;;;5.00;2.13;;;;;;;-146.48;100.00;60459.00;5306432;28;20035;-78
2022/11/04 02:30:47;;;;;;;2.58;1.17;;;;;;;-146.48;100.00;60459.00;5305732;28;20055;-78
2022/11/04 02:33:28;;;;;;;4.18;1.45;;;;;;;-146.48;100.00;60459.00;5306153;28;20379;-78
2022/11/04 02:36:14;;;;;;;5.05;1.17;;;;;;;-146.48;100.00;60459.00;5305649;28;20035;-78
2022/11/04 02:38:58;;;;;;;3.95;1.17;;;;;;;-146.48;100.00;60459.00;5306346;28;20035;-78
2022/11/04 02:41:40;;;;;;;4.60;1.02;;;;;;;-146.48;100.00;60459.00;5305583;28;20059;-77
2022/11/04 02:44:26;;;;;;;3.33;1.20;;;;;;;-146.48;100.00;60459.00;5305245;28;20085;-77
2022/11/04 02:47:06;;;;;;;4.68;0.90;;;;;;;-146.48;100.00;60459.00;5306243;28;20039;-77
2022/11/04 02:49:41;;;;;;;2.83;0.80;;;;;;;-146.48;100.00;60459.00;5304678;28;20042;-79
2022/11/04 02:52:25;;;;;;;3.17;0.90;;;;;;;-146.48;100.00;60459.00;5305447;28;20028;-79
2022/11/04 02:55:06;;;;;;;4.45;1.02;;;;;;;-146.48;100.00;60459.00;5306170;28;20028;-77
2022/11/04 02:57:40;;;;;;;3.88;0.80;;;;;;;-146.48;100.00;60459.00;5304674;28;20085;-79
2022/11/04 03:00:13;;;;;;;2.95;0.90;;;;;;;-146.48;100.00;60459.00;5305523;28;20056;-77
2022/11/04 03:02:53;;;;;;;2.20;0.60;;;;;;;-146.48;100.00;60459.00;5305782;28;20028;-77
2022/11/04 03:05:31;;;;;;;3.83;0.65;;;;;;;-146.48;100.00;60459.00;5304644;28;20058;-77
2022/11/04 03:08:15;;;;;;;3.35;0.63;;;;;;;-146.48;100.00;60459.00;5305810;28;20032;-77
2022/11/04 03:10:59;;;;;;;2.38;0.60;;;;;;;-146.48;100.00;60459.00;5305163;28;20064;-77
2022/11/04 03:14:15;;;;;;;7.00;1.02;;;;;;;-146.48;100.00;60459.00;5305182;28;20356;-79
2022/11/04 03:17:02;;;;;;;3.33;0.60;;;;;;;-146.48;100.00;60459.00;5296468;28;20044;-77
2022/11/04 03:19:43;;;;;;;3.78;0.88;;;;;;;-146.48;100.00;60459.00;5304328;28;20024;-77
2022/11/04 03:22:23;;;;;;;2.40;0.60;;;;;;;-146.48;100.00;60459.00;5303923;28;20036;-77
2022/11/04 03:24:56;;;;;;;2.50;0.60;;;;;;;-146.48;100.00;60459.00;5304476;28;20063;-77
2022/11/04 03:27:48;;;;;;;2.83;0.63;;;;;;;-146.48;100.00;60459.00;5304908;28;20024;-76
2022/11/04 03:30:22;;;;;;;4.50;0.50;;;;;;;-146.48;100.00;60459.00;5304493;28;20150;-77
2022/11/04 03:33:04;;;;;;;3.78;0.90;;;;;;;-146.48;100.00;60459.00;5304209;28;20064;-77
2022/11/04 03:35:36;;;;;;;3.17;0.70;;;;;;;-146.48;100.00;60459.00;5304170;28;20048;-78
2022/11/04 03:38:07;;;;;;;2.63;0.60;;;;;;;-146.48;100.00;60459.00;5305239;28;20035;-78
2022/11/04 03:40:39;;;;;;;3.67;0.50;;;;;;;-146.48;100.00;60459.00;5303940;28;20035;-78
2022/11/04 03:43:15;;;;;;;3.80;0.70;;;;;;;-146.48;100.00;60459.00;5305024;28;20034;-78
2022/11/04 03:45:47;;;;;;;3.20;0.60;;;;;;;-146.48;100.00;60459.00;5304182;28;20123;-78
2022/11/04 03:48:19;;;;;;;2.75;0.73;;;;;;;-146.48;100.00;60459.00;5304598;28;20028;-78
2022/11/04 03:50:50;;;;;;;4.38;0.60;;;;;;;-146.48;100.00;60459.00;5305135;28;20031;-78
2022/11/04 03:53:23;;;;;;;2.25;0.40;;;;;;;-146.48;100.00;60459.00;5303499;28;20032;-78
2022/11/04 03:55:57;;;;;;;3.80;0.63;;;;;;;-146.48;100.00;60459.00;5304837;28;20029;-78
2022/11/04 03:58:53;;;;;;;2.63;0.50;;;;;;;-146.48;100.00;60459.00;5304124;28;20098;-78
2022/11/04 04:01:53;;;;;;;4.72;0.57;;;;;;;-146.48;100.00;60459.00;5303618;28;20019;-79
2022/11/04 04:04:31;;;;;;;2.78;0.40;;;;;;;-146.48;100.00;60459.00;5304088;28;20109;-78
2022/11/04 04:07:13;;;;;;;3.58;0.50;;;;;;;-146.48;100.00;60459.00;5303951;28;20378;-79
2022/11/04 04:10:00;;;;;;;2.95;0.60;;;;;;;-146.48;100.00;60459.00;5304724;28;20031;-78
2022/11/04 04:12:39;;;;;;;2.65;0.50;;;;;;;-146.48;100.00;60459.00;5304071;28;20027;-78
2022/11/04 04:15:18;;;;;;;3.78;0.70;;;;;;;-146.48;100.00;60459.00;5303664;28;20024;-78
2022/11/04 04:17:57;;;;;;;4.20;0.50;;;;;;;-146.48;100.00;60459.00;5304631;28;20049;-78
2022/11/04 04:20:31;;;;;;;;;;;;;;;-146.48;100.00;60459.00;5304448;28;20035;-78
2022/11/04 04:29:01;;;;;;;5.10;0.40;;;;;;;-146.48;100.00;60459.00;5304231;28;20060;-78
2022/11/04 04:31:48;;;;;;;4.50;0.50;;;;;;;-146.48;100.00;60459.00;5303489;28;20494;-79
2022/11/04 04:34:22;;;;;;;3.22;0.40;;;;;;;-146.48;100.00;60459.00;5303463;28;20420;-77
2022/11/04 04:37:02;;;;;;;5.90;0.73;;;;;;;-146.48;100.00;60459.00;5303374;28;20382;-77
2022/11/04 04:45:33;;;;;;;5.60;0.60;;;;;;;-146.48;100.00;60459.00;5303609;28;20032;-76
2022/11/04 04:48:07;;;;;;;4.70;0.60;;;;;;;-146.48;100.00;60459.00;5303996;28;20031;-76
2022/11/04 04:50:43;;;;;;;5.63;0.70;;;;;;;-146.48;100.00;60459.00;5302790;28;20157;-78
2022/11/04 04:53:15;;;;;;;2.92;0.60;;;;;;;-146.48;100.00;60459.00;5303483;28;20035;-77
2022/11/04 04:55:46;;;;;;;3.65;0.60;;;;;;;-146.48;100.00;60459.00;5303016;28;20028;-77
2022/11/04 04:58:17;;;;;;;2.78;0.60;;;;;;;-146.48;100.00;60459.00;5302972;28;20337;-77
2022/11/04 05:00:48;;;;;;;3.15;0.70;;;;;;;-146.48;100.00;60459.00;5303637;28;20379;-77
2022/11/04 05:03:20;;;;;;;5.50;0.70;;;;;;;-146.48;100.00;60459.00;5302154;28;20434;-76
2022/11/04 05:05:51;;;;;;;3.53;0.63;;;;;;;-146.48;100.00;60459.00;5303466;28;20039;-77
2022/11/04 05:08:22;;;;;;;4.00;0.90;;;;;;;-146.48;100.00;60459.00;5302734;28;20103;-76
2022/11/04 05:10:54;;;;;;;5.50;1.10;;;;;;;-146.48;100.00;60459.00;5302304;28;20028;-77
2022/11/04 05:13:25;;;;;;;2.78;1.10;;;;;;;-146.48;100.00;60459.00;5302582;28;20038;-76
2022/11/04 05:16:02;;;;;;;6.70;1.77;;;;;;;-146.48;100.00;60459.00;5303490;28;20027;-77
2022/11/04 05:18:34;;;;;;;6.57;1.55;;;;;;;-146.48;100.00;60459.00;5301694;28;20020;-76
2022/11/04 05:21:09;;;;;;;7.22;2.03;;;;;;;-146.48;100.00;60459.00;5303210;28;20580;-76
2022/11/04 05:23:41;;;;;;;8.00;2.17;;;;;;;-146.48;100.00;60459.00;5302394;28;20028;-78
2022/11/04 05:26:13;;;;;;;5.50;1.50;;;;;;;-146.48;100.00;60459.00;5302302;28;20043;-78
2022/11/04 05:28:45;;;;;;;4.10;1.42;;;;;;;-146.48;100.00;60459.00;5303494;28;20471;-78
2022/11/04 05:31:16;;;;;;;3.72;1.58;;;;;;;-146.48;100.00;60459.00;5301692;28;20063;-78
2022/11/04 05:33:47;;;;;;;6.13;1.70;;;;;;;-146.48;100.00;60459.00;5303321;28;20024;-79
2022/11/04 05:36:19;;;;;;;5.22;1.60;;;;;;;-146.48;100.00;60459.00;5302436;28;20032;-78
2022/11/04 05:38:52;;;;;;;9.85;2.35;;;;;;;-146.48;100.00;60459.00;5302703;28;20487;-78
2022/11/04 05:41:26;;;;;;;5.50;2.20;;;;;;;-146.48;100.00;60459.00;5303013;28;20410;-78
2022/11/04 05:43:59;;;;;;;6.45;1.92;;;;;;;-146.48;100.00;60459.00;5303143;28;20024;-78
2022/11/04 05:46:31;;;;;;;6.20;2.20;;;;;;;-146.48;100.00;60459.00;5301049;28;20103;-78
2022/11/04 05:49:02;;;;;;;6.53;1.90;;;;;;;-146.48;100.00;60459.00;5303408;28;20431;-78
2022/11/04 05:51:34;;;;;;;3.28;1.38;;;;;;;-146.48;100.00;60459.00;5302539;28;20024;-79
2022/11/04 05:54:05;;;;;;;4.75;1.42;;;;;;;-146.48;100.00;60459.00;5302572;28;20032;-78
2022/11/04 05:56:36;;;;;;;4.55;1.33;;;;;;;-146.48;100.00;60459.00;5302967;28;20031;-78
2022/11/04 05:59:07;;;;;;;4.88;1.25;;;;;;;-146.48;100.00;60459.00;5302546;28;20028;-78
2022/11/04 06:01:40;;;;;;;5.00;1.45;;;;;;;-146.48;100.00;60459.00;5304247;28;20020;-78
2022/11/04 06:04:14;;;;;;;5.63;1.60;;;;;;;-146.48;100.00;60459.00;5304305;28;20024;-79
2022/11/04 06:06:45;;;;;;;5.13;1.13;;;;;;;-146.48;100.00;60459.00;5304493;28;20031;-78
2022/11/04 06:09:17;;;;;;;4.63;1.33;;;;;;;-146.48;100.00;60459.00;5303950;28;20016;-78
2022/11/04 06:11:48;;;;;;;4.60;1.38;;;;;;;-146.48;100.00;60459.00;5304784;28;20021;-78
2022/11/04 06:14:19;;;;;;;6.30;1.92;;;;;;;-146.48;100.00;60459.00;5304569;28;20020;-78
2022/11/04 06:16:51;;;;;;;4.22;1.75;;;;;;;-146.48;100.00;60459.00;5303020;28;20035;-77
2022/11/04 06:19:22;;;;;;;3.97;1.67;;;;;;;-146.48;100.00;60459.00;5301674;28;20116;-77
2022/11/04 06:21:53;;;;;;;6.30;1.60;;;;;;;-146.48;100.00;60459.00;5301443;28;20027;-77
2022/11/04 06:24:25;;;;;;;3.80;1.55;;;;;;;-146.48;100.00;60459.00;5302163;28;20028;-77
2022/11/04 06:26:56;;;;;;;6.28;1.98;;;;;;;-146.48;100.00;60459.00;5304480;28;20020;-77
2022/11/04 06:29:27;;;;;;;4.95;1.60;;;;;;;-146.48;100.00;60459.00;5304799;28;20027;-77
2022/11/04 06:31:58;;;;;;;7.32;2.30;;;;;;;-146.48;100.00;60459.00;5306196;28;20020;-78
2022/11/04 06:34:30;;;;;;;7.28;3.13;;;;;;;-146.48;100.00;60459.00;5302558;28;20059;-77
2022/11/04 06:37:01;;;;;;;4.88;3.63;;;;;;;-146.48;100.00;60459.00;5304513;28;20039;-77
2022/11/04 06:39:33;;;;;;;8.88;3.00;;;;;;;-146.48;100.00;60459.00;5304607;28;20085;-77
2022/11/04 06:42:04;;;;;;;4.60;1.88;;;;;;;-146.48;100.00;60459.00;5311589;28;20044;-78
2022/11/04 06:44:35;;;;;;;4.20;1.42;;;;;;;-146.48;100.00;60459.00;5315036;28;20080;-78
2022/11/04 06:47:08;;;;;;;4.10;1.90;;;;;;;-146.48;100.00;60459.00;5313629;28;20028;-78
2022/11/04 06:49:40;;;;;;;4.60;1.80;;;;;;;-146.48;100.00;60459.00;5311735;28;20448;-78
2022/11/04 06:52:11;;;;;;;4.90;1.52;;;;;;;-146.48;100.00;60459.00;5311482;28;20044;-78
2022/11/04 06:54:42;;;;;;;3.78;2.00;;;;;;;-146.48;100.00;60459.00;5311041;28;20039;-78
2022/11/04 06:57:14;;;;;;;6.63;2.10;;;;;;;-146.48;100.00;60459.00;5310525;28;20043;-79
2022/11/04 06:59:45;;;;;;;4.57;1.98;;;;;;;-146.48;100.00;60459.00;5315680;28;20368;-78
2022/11/04 07:02:16;;;;;;;8.38;1.92;;;;;;;-146.48;100.00;60459.00;5314768;28;20020;-78
2022/11/04 07:04:47;;;;;;;5.20;1.73;;;;;;;-146.48;100.00;60459.00;5314495;28;20036;-78
2022/11/04 07:07:19;;;;;;;5.05;1.70;;;;;;;-146.48;100.00;60459.00;5314631;28;20016;-78
2022/11/04 07:09:50;;;;;;;4.70;1.70;;;;;;;-146.48;100.00;60459.00;5313478;28;20031;-78
2022/11/04 07:12:23;;;;;;;5.35;2.47;;;;;;;-146.48;100.00;60459.00;5316422;28;20399;-78
2022/11/04 07:14:55;;;;;;;3.63;2.10;;;;;;;-146.48;100.00;60459.00;5318388;28;20020;-79
2022/11/04 07:17:26;;;;;;;6.90;2.42;;;;;;;-146.48;100.00;60459.00;5315956;28;20039;-78
2022/11/04 07:19:57;;;;;;;6.72;2.65;;;;;;;-146.48;100.00;60459.00;5316755;28;20077;-78
2022/11/04 07:22:29;;;;;;;8.07;2.17;;;;;;;-146.48;100.00;60459.00;5317614;28;20498;-78
2022/11/04 07:25:00;;;;;;;6.60;2.78;;;;;;;-146.48;100.00;60459.00;5317134;28;20095;-78
2022/11/04 07:27:31;;;;;;;8.63;2.85;;;;;;;-146.48;100.00;60459.00;5318186;28;20110;-78
2022/11/04 07:30:03;;;;;;;6.07;2.25;;;;;;;-146.48;100.00;60459.00;5319085;28;20100;-78
2022/11/04 07:32:34;;;;;;;3.85;1.80;;;;;;;-146.48;100.00;60459.00;5317171;28;20024;-78
2022/11/04 07:35:06;;;;;;;8.68;2.28;;;;;;;-146.48;100.00;60459.00;5314223;28;20855;-77
2022/11/04 07:37:37;;;;;;;5.80;2.30;;;;;;;-146.48;100.00;60459.00;5307572;28;20075;-77
2022/11/04 07:40:09;;;;;;;6.50;1.77;;;;;;;-146.48;100.00;60459.00;5307852;28;20118;-77
2022/11/04 07:42:40;;;;;;;7.22;2.50;;;;;;;-146.48;100.00;60459.00;5305721;28;20073;-77
2022/11/04 07:45:12;;;;;;;6.00;1.77;;;;;;;-146.48;100.00;60459.00;5303788;28;20035;-76
2022/11/04 07:47:43;;;;;;;6.88;1.90;;;;;;;-146.48;100.00;60459.00;5304939;28;20376;-77
2022/11/04 07:50:15;;;;;;;7.95;1.80;;;;;;;-146.48;100.00;60459.00;5304286;28;20031;-77
2022/11/04 07:52:46;;;;;;;4.50;1.52;;;;;;;-146.48;100.00;60459.00;5303879;28;20024;-76
2022/11/04 07:55:18;;;;;;;5.90;1.75;;;;;;;-146.48;100.00;60459.00;5304005;28;20031;-77
2022/11/04 07:57:49;;;;;;;8.10;1.35;;;;;;;-146.48;100.00;60459.00;5305331;28;20024;-78
2022/11/04 08:00:20;;;;;;;4.47;1.33;;;;;;;-146.48;100.00;60459.00;5304840;28;20525;-77
2022/11/04 08:02:52;;;;;;;6.47;1.08;;;;;;;-146.48;100.00;60459.00;5306856;28;20028;-76
2022/11/04 08:05:23;;;;;;;5.25;1.50;;;;;;;-146.48;100.00;60459.00;5304851;28;20032;-77
2022/11/04 08:07:56;;;;;;;5.82;1.58;;;;;;;-146.48;100.00;60459.00;5302913;28;20080;-77
2022/11/04 08:10:28;;;;;;;5.85;1.30;;;;;;;-146.48;100.00;60459.00;5303266;28;20039;-77
2022/11/04 08:12:59;;;;;;;8.35;1.13;;;;;;;-146.48;100.00;60459.00;5304307;28;20028;-77
2022/11/04 08:15:30;;;;;;;6.10;1.05;;;;;;;-146.48;100.00;60459.00;5303878;28;20404;-78
2022/11/04 08:18:02;;;;;;;3.30;1.30;;;;;;;-146.48;100.00;60459.00;5303770;28;20060;-77
2022/11/04 08:20:33;;;;;;;9.95;1.85;;;;;;;-146.48;100.00;60459.00;5302748;28;20032;-77
2022/11/04 08:23:04;;;;;;;4.07;1.00;;;;;;;-146.48;100.00;60459.00;5303881;28;20464;-78
2022/11/04 08:25:36;;;;;;;6.57;1.38;;;;;;;-146.48;100.00;60459.00;5303604;28;20020;-78
2022/11/04 08:28:07;;;;;;;6.68;1.75;;;;;;;-146.48;100.00;60459.00;5303205;28;20077;-77
2022/11/04 08:30:38;;;;;;;6.65;1.38;;;;;;;-146.48;100.00;60459.00;5302741;28;20048;-76
2022/11/04 08:33:10;;;;;;;11.30;1.70;;;;;;;-146.48;100.00;60459.00;5303411;28;20032;-75
2022/11/04 08:35:41;;;;;;;5.75;1.20;;;;;;;-146.48;100.00;60459.00;5301942;28;20052;-76
2022/11/04 08:38:12;;;;;;;5.20;1.40;;;;;;;-146.48;100.00;60459.00;5302676;28;20035;-76
2022/11/04 08:40:44;;;;;;;6.07;1.73;;;;;;;-146.48;100.00;60459.00;5303120;28;20042;-75
2022/11/04 08:43:15;;;;;;;7.82;1.70;;;;;;;-146.48;100.00;60459.00;5302177;28;20035;-77
2022/11/04 08:45:47;;;;;;;8.77;2.40;;;;;;;-146.48;100.00;60459.00;5303173;28;20021;-75
2022/11/04 08:48:18;;;;;;;7.85;1.85;;;;;;;-146.48;100.00;60459.00;5301709;28;20115;-76
2022/11/04 08:50:52;;;;;;;7.68;2.20;;;;;;;-146.48;100.00;60459.00;5303144;28;20032;-76
2022/11/04 08:53:24;;;;;;;8.35;1.52;;;;;;;-146.48;100.00;60459.00;5297567;28;20039;-77
2022/11/04 08:55:56;;;;;;;6.65;1.80;;;;;;;-146.48;100.00;60459.00;5302050;28;20446;-77
2022/11/04 08:58:27;;;;;;;7.82;1.77;;;;;;;-146.48;100.00;60459.00;5302332;28;20102;-77
2022/11/04 09:01:02;;;;;;;6.43;1.63;;;;;;;-146.48;100.00;60459.00;5302466;28;20028;-76
2022/11/04 09:03:38;;;;;;;9.52;1.80;;;;;;;-146.48;100.00;60459.00;5301069;28;20154;-76
2022/11/04 09:06:14;;;;;;;8.20;1.40;;;;;;;-146.48;100.00;60459.00;5302433;28;20471;-75
2022/11/04 09:08:46;;;;;;;6.18;1.52;;;;;;;-146.48;100.00;60459.00;5302365;28;20032;-74
2022/11/04 09:11:17;;;;;;;5.93;1.67;;;;;;;-146.48;100.00;60459.00;5300817;28;20097;-74
2022/11/04 09:13:49;;;;;;;5.70;1.88;;;;;;;-146.48;100.00;60459.00;5302479;28;20054;-78
2022/11/04 09:16:20;;;;;;;6.32;1.50;;;;;;;-146.48;100.00;60459.00;5301305;28;20474;-74
2022/11/04 09:18:51;;;;;;;5.07;1.45;;;;;;;-146.48;100.00;60459.00;5302615;28;20031;-75
2022/11/04 09:21:23;;;;;;;8.35;1.30;;;;;;;-146.48;100.00;60459.00;5300794;28;20390;-76
2022/11/04 09:23:55;;;;;;;10.70;1.52;;;;;;;-146.48;100.00;60459.00;5301280;28;20039;-76
2022/11/04 09:26:27;;;;;;;6.70;1.60;;;;;;;-146.48;100.00;60459.00;5301581;28;20024;-76
2022/11/04 09:28:59;;;;;;;8.98;1.60;;;;;;;-146.48;100.00;60459.00;5302196;28;20146;-76
2022/11/04 09:31:30;;;;;;;6.65;1.33;;;;;;;-146.48;100.00;60459.00;5300395;28;20047;-76
2022/11/04 09:34:01;;;;;;;6.25;1.45;;;;;;;-146.48;100.00;60459.00;5299106;28;20024;-75
2022/11/04 09:36:33;;;;;;;7.97;1.60;;;;;;;-146.48;100.00;60459.00;5300737;28;20531;-76
2022/11/04 09:39:04;;;;;;;6.53;1.58;;;;;;;-146.48;100.00;60459.00;5300565;28;20039;-74
2022/11/04 09:41:54;;;;;;;5.78;1.58;;;;;;;-146.48;100.00;60459.00;5301532;28;20028;-76
2022/11/04 09:44:54;;;;;;;4.82;1.30;;;;;;;-146.48;100.00;60459.00;5300898;28;20117;-78
2022/11/04 09:47:26;;;;;;;3.83;1.10;;;;;;;-146.48;100.00;60459.00;5301889;28;20032;-76
2022/11/04 09:49:59;;;;;;;7.55;1.50;;;;;;;-146.48;100.00;60459.00;5302291;28;20031;-76
2022/11/04 09:52:38;;;;;;;7.43;1.60;;;;;;;-146.48;100.00;60459.00;5300566;28;20024;-76
2022/11/04 09:55:24;;;;;;;6.70;1.83;;;;;;;-146.48;100.00;60459.00;5302205;28;20035;-76
2022/11/04 09:58:00;;;;;;;7.13;1.83;;;;;;;-146.48;100.00;60459.00;5302185;28;20032;-76
2022/11/04 10:00:36;;;;;;;6.18;1.40;;;;;;;-146.48;100.00;60459.00;5301009;28;20538;-77
2022/11/04 10:03:34;;;;;;;6.75;1.67;;;;;;;-146.48;100.00;60459.00;5302304;28;20081;-76
2022/11/04 10:06:24;;;;;;;9.07;2.17;;;;;;;-146.48;100.00;60459.00;5302080;28;20032;-77
2022/11/04 10:09:13;;;;;;;5.70;1.25;;;;;;;-146.48;100.00;60459.00;5303017;28;20115;-76
2022/11/04 10:12:14;;;;;;;5.85;1.30;;;;;;;-146.48;100.00;60459.00;5302793;28;20070;-77
2022/11/04 10:15:07;;;;;;;7.25;1.92;;;;;;;-146.48;100.00;60459.00;5271023;28;20359;-76
2022/11/04 10:17:56;;;;;;;3.97;1.27;;;;;;;-146.48;100.00;60459.00;5301814;28;20327;-76
2022/11/04 10:20:55;;;;;;;6.70;1.45;;;;;;;-146.48;100.00;60459.00;5301184;28;20031;-76
2022/11/04 10:23:54;;;;;;;5.30;1.50;;;;;;;-146.48;100.00;60459.00;5301912;28;20032;-77
2022/11/04 10:26:38;;;;;;;4.82;1.27;;;;;;;-146.48;100.00;60459.00;5301150;28;20383;-77
2022/11/04 10:29:16;;;;;;;7.85;1.83;;;;;;;-146.48;100.00;60459.00;5302226;28;20036;-76
2022/11/04 10:31:47;;;;;;;5.65;1.65;;;;;;;-146.48;100.00;60459.00;5303618;28;20035;-76
2022/11/04 10:34:30;;;;;;;10.23;1.60;;;;;;;-146.48;100.00;60459.00;5304855;28;20467;-76
2022/11/04 10:37:03;;;;;;;6.88;2.00;;;;;;;-146.48;100.00;60459.00;5306379;28;20384;-76
2022/11/04 10:39:41;;;;;;;8.68;1.98;;;;;;;-146.48;100.00;60459.00;5305781;28;20024;-76
2022/11/04 10:42:17;;;;;;;7.82;1.88;;;;;;;-146.48;100.00;60459.00;5305026;28;20032;-74
2022/11/04 10:44:50;;;;;;;12.70;3.17;;;;;;;-146.48;100.00;60459.00;5306210;28;20016;-75
2022/11/04 10:47:42;;;;;;;8.43;2.88;;;;;;;-146.48;100.00;60459.00;5305543;28;20469;-76
2022/11/04 10:50:38;;;;;;;4.93;2.08;;;;;;;-146.48;100.00;60459.00;5305402;28;20529;-75
2022/11/04 10:53:17;;;;;;;12.50;3.20;;;;;;;-146.48;100.00;60459.00;5305811;28;20472;-75
2022/11/04 10:55:53;;;;;;;;;;;;;;;-146.48;100.00;60459.00;5305656;28;20372;-75
2022/11/04 10:58:28;;;;;;;10.45;2.45;;;;;;;-146.48;100.00;60459.00;5305297;28;19908;-75
2022/11/04 11:01:24;;;;;;;7.90;3.35;;;;;;;-146.48;100.00;60459.00;5305500;28;20130;-73
2022/11/04 11:03:56;;;;;;;7.57;3.83;;;;;;;-146.48;100.00;60459.00;5305134;28;20024;-77
2022/11/04 11:06:32;;;;;;;6.30;3.28;;;;;;;-146.48;100.00;60459.00;5306297;28;20024;-78
2022/11/04 11:09:20;;;;;;;12.25;3.35;;;;;;;-146.48;100.00;60459.00;5308157;28;20157;-77
2022/11/04 11:11:52;;;;;;;9.23;3.60;;;;;;;-146.48;100.00;60459.00;5305468;28;20032;-77
2022/11/04 11:14:29;;;;;;;11.05;4.28;;;;;;;-146.48;100.00;60459.00;5305491;28;20028;-77
2022/11/04 11:17:32;;;;;;;11.50;4.45;;;;;;;-146.48;100.00;60459.00;5304709;28;20055;-76
2022/11/04 11:20:22;;;;;;;11.55;3.63;;;;;;;-146.48;100.00;60459.00;5305395;28;20054;-79
2022/11/04 11:22:55;;;;;;;10.20;4.15;;;;;;;-146.48;100.00;60459.00;5304500;28;20532;-77
2022/11/04 11:25:30;;;;;;;7.95;4.10;;;;;;;-146.48;100.00;60459.00;5304811;28;20031;-77
2022/11/04 11:28:04;;;;;;;9.23;4.10;;;;;;;-146.48;100.00;60459.00;5304815;28;20387;-77
2022/11/04 11:30:47;;;;;;;9.55;4.15;;;;;;;-146.48;100.00;60459.00;5303574;28;20048;-76
2022/11/04 11:33:26;;;;;;;10.05;4.55;;;;;;;-146.48;100.00;60459.00;5304620;28;20040;-77
2022/11/04 11:36:01;;;;;;;5.80;3.20;;;;;;;-146.48;100.00;60459.00;5305306;28;20048;-78
2022/11/04 11:38:33;;;;;;;8.10;3.80;;;;;;;-146.48;100.00;60459.00;5298916;28;20107;-77
2022/11/04 11:41:10;;;;;;;9.98;3.25;;;;;;;-146.48;100.00;60459.00;5304519;28;20020;-79
2022/11/04 11:43:48;;;;;;;10.05;3.15;;;;;;;-146.48;100.00;60459.00;5302634;28;20103;-77
2022/11/04 11:46:22;;;;;;;11.00;3.90;;;;;;;-146.48;100.00;60459.00;5304134;28;20020;-77
2022/11/04 11:49:01;;;;;;;8.10;3.28;;;;;;;-146.48;100.00;60459.00;5304777;28;20089;-77
2022/11/04 11:51:36;;;;;;;7.03;3.63;;;;;;;-146.48;100.00;60459.00;5303064;28;20028;-78
2022/11/04 11:54:22;;;;;;;6.45;3.20;;;;;;;-146.48;100.00;60459.00;5301734;28;20039;-77
2022/11/04 11:56:56;;;;;;;6.68;3.55;;;;;;;-146.48;100.00;60459.00;5304496;28;20050;-78
2022/11/04 11:59:36;;;;;;;7.55;3.78;;;;;;;-146.48;100.00;60459.00;5303070;28;20023;-78
2022/11/04 12:02:24;;;;;;;11.82;4.03;;;;;;;-146.48;100.00;60459.00;5304753;28;20436;-72
2022/11/04 12:04:56;;;;;;;9.68;3.47;;;;;;;-146.48;100.00;60459.00;5303559;28;20024;-73
2022/11/04 12:07:48;;;;;;;8.18;4.15;;;;;;;-146.48;100.00;60459.00;5303824;28;20020;-78
2022/11/04 12:10:19;;;;;;;7.82;2.63;;;;;;;-146.48;100.00;60459.00;5304680;28;20032;-77
2022/11/04 12:13:01;;;;;;;5.85;3.15;;;;;;;-146.48;100.00;60459.00;5303809;28;20080;-78
2022/11/04 12:15:44;;;;;;;9.68;3.20;;;;;;;-146.48;100.00;60459.00;5303837;28;20076;-78
2022/11/04 12:18:41;;;;;;;9.10;3.03;;;;;;;-146.48;100.00;60459.00;5303594;28;20395;-76
2022/11/04 12:21:32;;;;;;;8.75;3.42;;;;;;;-146.48;100.00;60459.00;5302564;28;20042;-76